Time;durP1;ratioP1;P1;durP2;ratioP2;P2;SDS_P1;SDS_P2;PMS_P1;PMS_P2;Temp;Humidity;BMP_temperature;BMP_pressure;BME280_temperature;BME280_humidity;BME280_pressure;Samples;Min_cycle;Max_cycle;Signal;HPM_P1;HPM_P2
2022/04/28 00:02:51;;;;;;;3.83;2.90;;;;;;;22.92;39.68;95010.31;6146841;28;105341;-57
2022/04/28 00:05:53;;;;;;;3.23;2.80;;;;;;;22.91;39.75;95014.88;6138921;28;104460;-59
2022/04/28 00:08:55;;;;;;;4.50;2.60;;;;;;;22.93;39.65;95025.22;6141087;28;104418;-59
2022/04/28 00:11:56;;;;;;;3.67;3.20;;;;;;;22.94;39.69;95016.13;6155850;28;105133;-58
2022/04/28 00:14:58;;;;;;;3.20;2.73;;;;;;;22.93;39.82;95014.56;6162548;28;103908;-59
2022/04/28 00:18:00;;;;;;;3.30;2.67;;;;;;;22.91;39.34;95022.88;6143886;28;104724;-58
2022/04/28 00:21:02;;;;;;;3.60;2.50;;;;;;;22.91;39.48;95025.53;6142636;28;103874;-59
2022/04/28 00:24:04;;;;;;;2.43;2.23;;;;;;;22.91;39.39;95020.19;6138653;28;105093;-59
2022/04/28 00:27:06;;;;;;;2.47;2.20;;;;;;;22.87;39.43;95021.16;6136544;28;103860;-60
2022/04/28 00:30:08;;;;;;;2.50;2.30;;;;;;;22.92;39.00;95020.97;6130947;28;103832;-57
2022/04/28 00:33:10;;;;;;;3.00;2.67;;;;;;;22.90;39.36;95020.50;6144352;28;103928;-58
2022/04/28 00:36:11;;;;;;;3.00;2.70;;;;;;;22.88;38.91;95020.03;6137330;28;103980;-58
2022/04/28 00:39:13;;;;;;;2.70;2.33;;;;;;;22.89;39.06;95030.41;6160376;28;103932;-59
2022/04/28 00:42:16;;;;;;;3.20;2.30;;;;;;;22.86;39.27;95030.25;6148998;28;105538;-59
2022/04/28 00:45:18;;;;;;;4.83;2.70;;;;;;;22.87;38.75;95037.16;6157758;28;103704;-59
2022/04/28 00:51:40;;;;;;;3.63;2.77;;;;;;;22.87;38.90;95031.81;6150720;28;103906;-58
2022/04/28 00:54:44;;;;;;;2.40;2.20;;;;;;;22.86;39.26;95039.03;6120748;28;105625;-59
2022/04/28 00:57:47;;;;;;;2.60;2.40;;;;;;;22.86;39.25;95043.59;6136659;28;103755;-60
2022/04/28 01:00:48;;;;;;;3.03;2.73;;;;;;;22.85;39.26;95050.81;6136271;28;103882;-59
2022/04/28 01:03:51;;;;;;;3.87;2.57;;;;;;;22.85;39.03;95044.66;6131174;28;103444;-59
2022/04/28 01:06:53;;;;;;;5.33;3.30;;;;;;;22.83;39.07;95047.63;6141892;28;104765;-59
2022/04/28 01:09:54;;;;;;;3.80;3.50;;;;;;;22.85;38.69;95042.81;6142070;28;104112;-59
2022/04/28 01:12:56;;;;;;;4.00;3.70;;;;;;;22.83;38.73;95046.84;6152576;28;104836;-59
2022/04/28 01:15:58;;;;;;;4.20;3.40;;;;;;;22.84;39.01;95048.41;6140503;28;104702;-59
2022/04/28 01:19:00;;;;;;;4.23;3.57;;;;;;;22.81;39.30;95051.72;6140468;28;104736;-57
2022/04/28 01:22:02;;;;;;;5.60;3.80;;;;;;;22.84;39.06;95051.09;6153496;28;105690;-59
2022/04/28 01:25:07;;;;;;;4.10;3.37;;;;;;;22.84;38.96;95061.75;6166173;28;103847;-59
2022/04/28 01:28:09;;;;;;;4.80;3.90;;;;;;;22.80;38.81;95058.16;6154792;28;103701;-59
2022/04/28 01:31:11;;;;;;;4.00;3.60;;;;;;;22.81;39.36;95054.38;6153198;28;103729;-59
2022/04/28 01:34:13;;;;;;;4.80;4.40;;;;;;;22.81;39.03;95057.06;6156630;28;104061;-59
2022/04/28 01:37:15;;;;;;;4.30;3.93;;;;;;;22.78;39.11;95055.00;6137442;28;103933;-59
2022/04/28 01:40:17;;;;;;;4.17;3.63;;;;;;;22.77;39.06;95056.88;6155753;28;103802;-59
2022/04/28 01:43:19;;;;;;;5.40;4.20;;;;;;;22.77;39.14;95067.56;6160267;28;105168;-59
2022/04/28 01:46:20;;;;;;;4.23;3.90;;;;;;;22.79;38.67;95062.69;6165673;28;104633;-59
2022/04/28 01:49:22;;;;;;;4.83;4.17;;;;;;;22.78;39.00;95063.00;6140565;28;104784;-58
2022/04/28 01:55:44;;;;;;;4.73;4.03;;;;;;;22.76;39.18;95063.31;6156012;28;103724;-59
2022/04/28 01:58:46;;;;;;;4.10;3.23;;;;;;;22.75;39.08;95064.41;6141247;28;104645;-59
2022/04/28 02:01:47;;;;;;;3.73;3.43;;;;;;;22.73;39.04;95063.16;6138978;28;104862;-59
2022/04/28 02:04:50;;;;;;;4.30;3.50;;;;;;;22.77;39.21;95074.78;6155316;28;105019;-59
2022/04/28 02:07:52;;;;;;;4.50;3.90;;;;;;;22.70;38.83;95068.03;6164922;28;103730;-59
2022/04/28 02:10:53;;;;;;;3.93;3.50;;;;;;;22.71;38.76;95068.81;6154526;28;103589;-58
2022/04/28 02:13:55;;;;;;;4.13;3.80;;;;;;;22.75;38.79;95071.63;6130241;28;103898;-59
2022/04/28 02:16:57;;;;;;;4.10;3.70;;;;;;;22.73;39.28;95079.94;6143638;28;103868;-59
2022/04/28 02:20:03;;;;;;;3.43;3.13;;;;;;;22.72;39.62;95077.59;6140136;28;103710;-58
2022/04/28 02:23:05;;;;;;;4.10;3.40;;;;;;;22.72;39.48;95083.72;6147885;28;103869;-56
2022/04/28 02:26:07;;;;;;;3.63;3.17;;;;;;;22.68;39.31;95083.56;6163771;28;104021;-59
2022/04/28 02:29:08;;;;;;;3.80;3.43;;;;;;;22.68;39.46;95078.22;6148611;28;103710;-59
2022/04/28 02:32:10;;;;;;;5.80;3.60;;;;;;;22.68;39.41;95088.88;6147678;28;105115;-58
2022/04/28 02:35:12;;;;;;;3.80;3.20;;;;;;;22.78;39.02;95082.47;6141683;28;104755;-58
2022/04/28 02:38:14;;;;;;;12.47;4.60;;;;;;;22.79;39.01;95083.25;6156602;28;103912;-58
2022/04/28 02:41:20;;;;;;;3.93;3.60;;;;;;;22.80;39.30;95084.81;6160577;28;103975;-58
2022/04/28 02:44:22;;;;;;;5.90;3.80;;;;;;;22.82;39.29;95087.97;6162520;28;103619;-58
2022/04/28 02:47:23;;;;;;;4.60;4.00;;;;;;;22.78;39.08;95084.34;6152328;28;104831;-59
2022/04/28 02:50:25;;;;;;;5.30;4.27;;;;;;;22.79;39.37;95093.94;6163116;28;103640;-58
2022/04/28 02:53:27;;;;;;;4.27;3.60;;;;;;;22.81;39.59;95091.72;6148186;28;103875;-58
2022/04/28 02:56:28;;;;;;;3.50;3.20;;;;;;;22.77;39.61;95090.78;6143971;28;105015;-58
2022/04/28 02:59:30;;;;;;;4.00;3.60;;;;;;;22.80;39.23;95093.63;6155025;28;104737;-58
2022/04/28 03:02:32;;;;;;;4.53;3.73;;;;;;;22.80;39.38;95092.84;6160582;28;103833;-58
2022/04/28 03:10:46;;;;;;;9.53;3.83;;;;;;;22.76;39.95;95094.53;6163364;28;103686;-58
2022/04/28 03:12:19;;;;;;;4.30;3.90;;;;;;;22.80;39.69;95101.63;6118674;28;104349;-58
2022/04/28 03:15:21;;;;;;;4.30;3.90;;;;;;;22.79;39.14;95099.25;6160231;28;103624;-58
2022/04/28 03:18:22;;;;;;;4.20;3.10;;;;;;;22.78;39.31;95106.47;6160438;28;103876;-58
2022/04/28 03:21:24;;;;;;;4.93;3.67;;;;;;;22.79;39.73;95116.06;6148948;28;105242;-58
2022/04/28 03:24:26;;;;;;;8.07;3.90;;;;;;;22.76;39.59;95111.34;6138029;28;103914;-58
2022/04/28 03:27:28;;;;;;;8.33;3.97;;;;;;;22.77;40.07;95123.59;6154944;28;103191;-59
2022/04/28 03:30:29;;;;;;;6.70;3.00;;;;;;;22.78;39.17;95127.81;6150384;28;104912;-57
2022/04/28 03:33:31;;;;;;;4.40;3.70;;;;;;;22.57;39.14;95124.91;6142676;28;103861;-58
2022/04/28 03:36:52;;;;;;;5.67;3.73;;;;;;;22.44;39.39;95136.41;6136612;28;104231;-58
2022/04/28 03:39:53;;;;;;;7.80;4.40;;;;;;;22.31;40.03;95142.59;6149917;28;104041;-58
2022/04/28 03:42:57;;;;;;;8.90;3.60;;;;;;;22.30;39.65;95154.34;6134632;28;103962;-57
2022/04/28 03:45:58;;;;;;;9.03;4.30;;;;;;;22.34;39.72;95152.66;6154384;28;103822;-58
2022/04/28 03:49:00;;;;;;;9.93;4.13;;;;;;;22.34;39.81;95150.00;6156822;28;104628;-59
2022/04/28 03:52:03;;;;;;;5.67;3.40;;;;;;;22.37;39.47;95158.19;6159308;28;104961;-58
2022/04/28 03:55:05;;;;;;;8.60;3.93;;;;;;;22.43;39.26;95153.50;6139606;28;103721;-59
2022/04/28 03:58:07;;;;;;;8.23;3.90;;;;;;;22.45;39.77;95151.31;6149787;28;103868;-58
2022/04/28 04:01:09;;;;;;;6.00;3.83;;;;;;;22.48;39.98;95165.91;6142187;28;105035;-59
2022/04/28 04:04:10;;;;;;;9.57;4.10;;;;;;;22.41;40.39;95167.16;6148422;28;103807;-56
2022/04/28 04:07:12;;;;;;;8.83;4.53;;;;;;;22.65;40.47;95166.03;6125920;28;105324;-57
2022/04/28 04:10:14;;;;;;;4.60;4.20;;;;;;;22.63;41.05;95157.56;6147319;28;104813;-59
2022/04/28 04:13:16;;;;;;;4.63;3.83;;;;;;;22.72;40.79;95162.97;6140832;28;103852;-58
2022/04/28 04:16:17;;;;;;;6.90;4.33;;;;;;;22.76;40.59;95171.91;6148729;28;103760;-59
2022/04/28 04:19:19;;;;;;;4.40;4.07;;;;;;;22.79;40.45;95164.09;6131629;28;104644;-58
2022/04/28 04:22:21;;;;;;;15.33;5.53;;;;;;;22.86;40.72;95174.34;6143129;28;104103;-58
2022/04/28 04:25:22;;;;;;;5.40;4.90;;;;;;;22.86;40.56;95163.66;6159830;28;103859;-58
2022/04/28 04:28:24;;;;;;;7.10;4.20;;;;;;;22.83;40.47;95161.56;6130257;28;105001;-58
2022/04/28 04:34:48;;;;;;;5.67;3.50;;;;;;;22.83;40.21;95181.03;6137119;28;103494;-59
2022/04/28 04:37:53;;;;;;;4.37;3.70;;;;;;;22.78;40.46;95177.72;6139437;28;103354;-59
2022/04/28 04:40:55;;;;;;;6.93;4.00;;;;;;;22.81;39.93;95183.22;6131792;28;104764;-59
2022/04/28 04:43:57;;;;;;;3.87;3.57;;;;;;;22.82;40.58;95178.69;6141995;28;104270;-59
2022/04/28 04:46:58;;;;;;;7.77;3.87;;;;;;;22.81;40.63;95185.13;6142107;28;103959;-58
2022/04/28 04:50:00;;;;;;;3.80;3.27;;;;;;;22.81;40.44;95179.78;6137645;28;104204;-57
2022/04/28 04:53:04;;;;;;;3.70;3.27;;;;;;;22.82;40.20;95182.13;6136254;28;104978;-58
2022/04/28 04:56:06;;;;;;;5.10;4.07;;;;;;;22.82;40.24;95184.03;6141601;28;103774;-59
2022/04/28 04:59:08;;;;;;;5.23;3.67;;;;;;;22.81;40.71;95193.91;6141542;28;104471;-59
2022/04/28 05:02:09;;;;;;;3.87;3.50;;;;;;;22.84;40.43;95192.50;6132124;28;105116;-59
2022/04/28 05:05:11;;;;;;;3.77;3.47;;;;;;;22.81;40.63;95193.91;6140381;28;103738;-57
2022/04/28 05:08:14;;;;;;;3.80;3.50;;;;;;;22.84;40.44;95205.84;6141876;28;103657;-58
2022/04/28 05:11:17;;;;;;;5.07;3.70;;;;;;;22.83;40.10;95209.59;6141950;28;104867;-59
2022/04/28 05:14:19;;;;;;;4.00;3.60;;;;;;;22.84;40.40;95208.50;6130059;28;103845;-59
2022/04/28 05:17:20;;;;;;;3.70;3.40;;;;;;;22.84;40.64;95213.84;6142056;28;104186;-60
2022/04/28 05:20:22;;;;;;;4.00;3.70;;;;;;;22.79;40.35;95212.09;6141875;28;104677;-58
2022/04/28 05:23:24;;;;;;;3.67;3.40;;;;;;;22.79;40.11;95214.00;6141749;28;104958;-58
2022/04/28 05:26:26;;;;;;;3.40;3.20;;;;;;;22.81;40.72;95223.25;6129405;28;103942;-58
2022/04/28 05:29:27;;;;;;;3.70;3.40;;;;;;;22.83;40.43;95226.41;6141681;28;104930;-57
2022/04/28 05:32:29;;;;;;;2.93;2.70;;;;;;;22.81;39.81;95225.13;6141326;28;104041;-58
2022/04/28 05:35:34;;;;;;;3.53;3.23;;;;;;;22.81;39.93;95228.59;6135709;28;104452;-58
2022/04/28 05:38:37;;;;;;;3.23;3.03;;;;;;;22.82;39.95;95224.03;6135668;28;104763;-56
2022/04/28 05:41:39;;;;;;;2.80;2.60;;;;;;;22.83;39.94;95228.28;6141603;28;103731;-58
2022/04/28 05:48:02;;;;;;;2.80;2.50;;;;;;;22.77;39.49;95240.19;6130768;28;104124;-58
2022/04/28 05:51:04;;;;;;;3.03;2.07;;;;;;;22.77;39.84;95238.31;6140095;28;104335;-58
2022/04/28 05:54:05;;;;;;;2.10;2.00;;;;;;;22.72;39.25;95233.09;6141204;28;103640;-58
2022/04/28 05:57:07;;;;;;;2.23;2.13;;;;;;;22.78;39.46;95247.88;6141037;28;105097;-58
2022/04/28 06:00:09;;;;;;;2.00;1.90;;;;;;;22.70;39.37;95252.09;6131242;28;103846;-58
2022/04/28 06:03:12;;;;;;;2.30;1.60;;;;;;;22.73;39.19;95263.25;6141333;28;104333;-58
2022/04/28 06:06:14;;;;;;;1.90;1.73;;;;;;;22.68;39.55;95251.59;6140023;28;104281;-58
2022/04/28 06:09:16;;;;;;;2.40;2.10;;;;;;;22.70;39.74;95261.97;6141250;28;104661;-59
2022/04/28 06:12:18;;;;;;;3.07;1.43;;;;;;;22.65;39.35;95262.84;6130703;28;105172;-58
2022/04/28 06:15:19;;;;;;;2.20;1.77;;;;;;;22.68;39.34;95264.13;6123266;28;104584;-59
2022/04/28 06:18:22;;;;;;;1.50;1.40;;;;;;;22.67;39.47;95260.69;6140987;28;104827;-58
2022/04/28 06:21:23;;;;;;;3.50;1.57;;;;;;;22.68;39.63;95261.47;6135035;28;103839;-58
2022/04/28 06:24:25;;;;;;;2.80;1.87;;;;;;;22.68;39.69;95264.94;6137553;28;105015;-59
2022/04/28 06:27:28;;;;;;;1.63;1.53;;;;;;;22.66;39.76;95261.75;6141284;28;103407;-59
2022/04/28 06:30:30;;;;;;;1.80;1.70;;;;;;;22.72;39.52;95265.13;6140579;28;103929;-58
2022/04/28 06:33:32;;;;;;;1.30;1.20;;;;;;;22.70;39.82;95268.09;6129593;28;104300;-58
2022/04/28 06:36:37;;;;;;;1.47;1.37;;;;;;;22.72;39.35;95275.78;6139625;28;103697;-58
2022/04/28 06:39:39;;;;;;;2.70;1.50;;;;;;;22.74;39.45;95273.59;6140652;28;105003;-58
2022/04/28 06:42:44;;;;;;;1.47;1.20;;;;;;;22.72;39.31;95275.78;6140215;28;103911;-59
2022/04/28 06:46:31;;;;;;;1.40;1.30;;;;;;;22.68;39.23;95275.63;6129729;28;103929;-59
2022/04/28 06:49:08;;;;;;;1.23;1.13;;;;;;;22.68;39.28;95275.63;6129733;28;103659;-66
2022/04/28 06:52:10;;;;;;;1.67;1.27;;;;;;;22.72;39.18;95278.47;6139956;28;103752;-59
2022/04/28 06:55:12;;;;;;;1.47;1.10;;;;;;;22.74;39.11;95270.94;6134904;28;103974;-57
2022/04/28 06:58:13;;;;;;;1.43;1.33;;;;;;;22.75;39.24;95285.06;6134818;28;103690;-58
2022/04/28 07:01:15;;;;;;;1.30;1.20;;;;;;;22.73;39.30;95281.91;6140158;28;103880;-58
2022/04/28 07:04:17;;;;;;;3.37;1.40;;;;;;;22.70;39.41;95289.44;6140029;28;105078;-59
2022/04/28 07:07:19;;;;;;;1.53;1.27;;;;;;;22.71;39.14;95295.56;6128817;28;104757;-58
2022/04/28 07:10:21;;;;;;;1.00;0.90;;;;;;;22.73;39.23;95297.91;6139436;28;103850;-58
2022/04/28 07:13:23;;;;;;;1.60;1.00;;;;;;;22.66;39.21;95290.31;6139309;28;104041;-59
2022/04/28 07:16:24;;;;;;;1.10;1.00;;;;;;;22.65;39.16;95291.41;6139356;28;104773;-58
2022/04/28 07:19:26;;;;;;;1.10;1.00;;;;;;;22.71;39.27;95292.88;6128581;28;103599;-58
2022/04/28 07:22:28;;;;;;;1.20;1.00;;;;;;;22.69;39.47;95295.88;6139200;28;103489;-59
2022/04/28 07:25:30;;;;;;;0.90;0.90;;;;;;;22.72;39.46;95301.69;6139431;28;104458;-58
2022/04/28 07:28:32;;;;;;;1.20;1.03;;;;;;;22.69;39.47;95295.88;6139025;28;103637;-57
2022/04/28 07:31:33;;;;;;;1.17;0.80;;;;;;;22.70;39.42;95300.09;6128398;28;104356;-59
2022/04/28 07:34:36;;;;;;;1.10;1.00;;;;;;;22.74;38.97;95310.16;6138983;28;103321;-58
2022/04/28 07:37:38;;;;;;;2.67;0.80;;;;;;;22.69;39.06;95303.88;6138797;28;104107;-58
2022/04/28 07:40:40;;;;;;;1.50;1.20;;;;;;;22.68;39.13;95309.47;6134457;28;104929;-59
2022/04/28 07:43:42;;;;;;;2.20;1.30;;;;;;;22.78;39.26;95305.78;6133834;28;103780;-57
2022/04/28 07:46:44;;;;;;;2.20;0.90;;;;;;;22.79;39.32;95308.16;6139432;28;105289;-68
2022/04/28 07:49:45;;;;;;;1.57;1.00;;;;;;;22.79;38.71;95307.38;6139576;28;104682;-58
2022/04/28 07:52:47;;;;;;;1.33;1.10;;;;;;;22.81;39.25;95302.50;6129315;28;103930;-58
2022/04/28 07:59:10;;;;;;;1.97;0.90;;;;;;;22.76;38.90;95318.66;6139238;28;104739;-58
2022/04/28 08:02:29;;;;;;;2.10;1.00;;;;;;;22.76;38.88;95324.00;6138856;28;104730;-58
2022/04/28 08:05:30;;;;;;;1.37;1.00;;;;;;;22.72;39.27;95325.69;6128676;28;104914;-58
2022/04/28 08:08:36;;;;;;;0.93;0.90;;;;;;;22.73;38.94;95324.59;6138096;28;105021;-59
2022/04/28 08:11:42;;;;;;;0.87;0.83;;;;;;;22.68;39.03;95325.47;6138400;28;103836;-59
2022/04/28 08:14:44;;;;;;;1.23;1.03;;;;;;;22.69;38.55;95327.88;6137247;28;103718;-58
2022/04/28 08:17:49;;;;;;;1.70;1.00;;;;;;;22.71;38.51;95324.91;6137284;28;103724;-59
2022/04/28 08:20:51;;;;;;;1.23;1.13;;;;;;;22.70;39.01;95328.66;6142358;28;103715;-57
2022/04/28 08:23:53;;;;;;;1.07;0.97;;;;;;;22.71;38.86;95327.56;6142877;28;104891;-58
2022/04/28 08:26:55;;;;;;;1.97;1.20;;;;;;;22.71;39.08;95335.56;6132259;28;104812;-58
2022/04/28 08:29:56;;;;;;;1.47;1.20;;;;;;;22.70;38.84;95326.78;6143069;28;104843;-58
2022/04/28 08:32:59;;;;;;;2.00;1.00;;;;;;;22.73;38.54;95335.28;6142522;28;103810;-59
2022/04/28 08:36:01;;;;;;;1.23;1.13;;;;;;;22.71;39.06;95338.25;6142489;28;103771;-57
2022/04/28 08:39:02;;;;;;;1.13;1.00;;;;;;;22.72;39.06;95347.03;6131586;28;104797;-58
2022/04/28 08:42:04;;;;;;;2.07;1.27;;;;;;;22.68;38.80;95342.31;6142193;28;103727;-59
2022/04/28 08:45:06;;;;;;;1.10;1.00;;;;;;;22.69;38.81;95341.22;6142209;28;103781;-58
2022/04/28 08:48:09;;;;;;;2.30;1.00;;;;;;;22.73;39.11;95336.06;6141609;28;104073;-53
2022/04/28 08:51:11;;;;;;;1.50;0.90;;;;;;;22.74;38.67;95342.97;6132658;28;103956;-55
2022/04/28 08:54:15;;;;;;;1.33;1.00;;;;;;;22.76;38.51;95332.78;6142276;28;103746;-55
2022/04/28 08:57:17;;;;;;;1.07;1.00;;;;;;;22.77;38.63;95342.34;6141422;28;103979;-56
2022/04/28 09:00:19;;;;;;;1.20;1.00;;;;;;;22.78;38.93;95343.94;6132801;28;103745;-54
2022/04/28 09:03:20;;;;;;;1.07;0.90;;;;;;;22.76;38.93;95340.00;6141663;28;103639;-56
2022/04/28 09:06:30;;;;;;;1.83;1.03;;;;;;;22.78;38.97;95345.81;6141596;28;103674;-56
2022/04/28 09:09:35;;;;;;;1.30;1.20;;;;;;;22.79;38.45;95344.72;6141560;28;103916;-55
2022/04/28 09:16:27;;;;;;;1.07;0.90;;;;;;;22.78;38.85;95346.59;6141246;28;104060;-55
2022/04/28 09:19:36;;;;;;;0.70;0.70;;;;;;;22.78;39.01;95349.28;6141749;28;104723;-56
2022/04/28 09:22:42;;;;;;;0.70;0.70;;;;;;;22.78;38.65;95343.16;6136354;28;103711;-55
2022/04/28 09:25:44;;;;;;;1.03;0.77;;;;;;;22.78;38.97;95348.47;6136122;28;103722;-55
2022/04/28 09:28:46;;;;;;;2.03;1.07;;;;;;;22.78;39.00;95351.16;6141250;28;103814;-55
2022/04/28 09:31:49;;;;;;;0.60;0.60;;;;;;;22.78;38.56;95346.59;6141734;28;104368;-55
2022/04/28 09:35:12;;;;;;;1.40;0.83;;;;;;;22.77;38.91;95352.25;6130893;28;103729;-55
2022/04/28 09:38:14;;;;;;;2.10;0.80;;;;;;;22.78;38.57;95353.81;6140315;28;104922;-56
2022/04/28 09:44:57;;;;;;;0.67;0.67;;;;;;;22.78;39.01;95353.81;6140322;28;104050;-54
2022/04/28 09:48:05;;;;;;;1.30;0.80;;;;;;;22.78;38.90;95354.59;6132722;28;103762;-56
2022/04/28 09:51:09;;;;;;;1.00;0.90;;;;;;;22.78;38.96;95343.94;6140779;28;103674;-56
2022/04/28 09:54:13;;;;;;;2.40;0.80;;;;;;;22.79;38.97;95344.72;6141123;28;104823;-55
2022/04/28 09:57:17;;;;;;;0.87;0.80;;;;;;;22.77;38.91;95346.91;6130625;28;103890;-56
2022/04/28 10:00:20;;;;;;;0.70;0.70;;;;;;;22.76;38.73;95356.78;6140566;28;104093;-56
2022/04/28 10:03:22;;;;;;;1.20;0.80;;;;;;;22.77;38.83;95346.91;6140833;28;103666;-56
2022/04/28 10:06:25;;;;;;;1.00;0.83;;;;;;;22.78;38.89;95348.47;6141130;28;104639;-55
2022/04/28 10:09:27;;;;;;;0.77;0.70;;;;;;;22.77;38.83;95352.25;6131037;28;105046;-56
2022/04/28 10:12:29;;;;;;;1.10;0.97;;;;;;;22.76;38.68;95356.78;6140210;28;103895;-56
2022/04/28 10:15:34;;;;;;;0.80;0.80;;;;;;;22.77;38.75;95353.03;6140312;28;103875;-54
2022/04/28 10:18:44;;;;;;;1.23;0.90;;;;;;;22.76;38.45;95356.00;6140674;28;104120;-56
2022/04/28 10:22:07;;;;;;;0.90;0.63;;;;;;;22.76;38.84;95348.00;6130694;28;104870;-56
2022/04/28 10:35:15;;;;;;;0.90;0.90;;;;;;;22.78;38.40;95338.59;6140602;28;104955;-55
2022/04/28 10:38:24;;;;;;;0.70;0.70;;;;;;;22.78;38.57;95337.81;6140633;28;104883;-56
2022/04/28 10:41:29;;;;;;;1.60;1.00;;;;;;;22.76;38.31;95326.66;6140321;28;103801;-55
2022/04/28 10:44:35;;;;;;;0.90;0.80;;;;;;;22.77;38.96;95330.91;6128134;28;103674;-55
2022/04/28 10:47:41;;;;;;;0.97;0.80;;;;;;;22.78;38.55;95321.81;6140228;28;103987;-56
2022/04/28 10:50:58;;;;;;;1.07;0.87;;;;;;;22.78;38.75;95322.59;6140229;28;103727;-56
2022/04/28 10:54:19;;;;;;;1.10;0.90;;;;;;;22.79;38.82;95332.16;6130115;28;104655;-56
2022/04/28 10:57:37;;;;;;;0.83;0.67;;;;;;;22.79;38.74;95326.84;6139726;28;104977;-56
2022/04/28 11:00:38;;;;;;;0.70;0.60;;;;;;;22.79;38.43;95331.38;6139913;28;104375;-55
2022/04/28 11:03:52;;;;;;;1.17;0.60;;;;;;;22.81;38.65;95327.31;6139748;28;103891;-55
2022/04/28 11:06:58;;;;;;;1.03;0.70;;;;;;;22.81;38.39;95326.53;6130148;28;103377;-55
2022/04/28 11:10:04;;;;;;;0.70;0.70;;;;;;;22.82;38.20;95328.88;6140186;28;104721;-56
2022/04/28 11:13:09;;;;;;;0.50;0.50;;;;;;;22.82;38.44;95318.22;6139809;28;104627;-56
2022/04/28 11:16:12;;;;;;;0.60;0.60;;;;;;;22.84;38.51;95331.25;6133618;28;103671;-55
2022/04/28 11:19:14;;;;;;;0.70;0.70;;;;;;;22.85;38.28;95325.63;6134188;28;104676;-56
2022/04/28 11:22:16;;;;;;;0.70;0.70;;;;;;;22.84;38.36;95321.38;6139776;28;104944;-56
2022/04/28 11:25:20;;;;;;;0.60;0.60;;;;;;;22.86;38.35;95323.75;6139908;28;104812;-56
2022/04/28 11:28:22;;;;;;;1.17;0.80;;;;;;;22.85;38.22;95322.16;6129829;28;104864;-56
2022/04/28 11:31:24;;;;;;;1.20;0.67;;;;;;;22.86;38.54;95318.44;6139578;28;104605;-55
2022/04/28 11:34:30;;;;;;;0.77;0.53;;;;;;;22.86;38.63;95319.22;6139610;28;105232;-55
2022/04/28 11:37:37;;;;;;;0.70;0.60;;;;;;;22.86;38.42;95321.09;6139493;28;103735;-55
2022/04/28 11:40:42;;;;;;;0.70;0.70;;;;;;;22.86;38.27;95323.75;6129303;28;103407;-55
2022/04/28 11:43:47;;;;;;;0.73;0.70;;;;;;;22.86;38.24;95319.22;6139568;28;104750;-55
2022/04/28 11:46:51;;;;;;;0.70;0.70;;;;;;;22.85;38.36;95314.97;6137536;28;104863;-56
2022/04/28 11:50:02;;;;;;;1.13;0.87;;;;;;;22.86;38.25;95313.09;6137211;28;103903;-54
2022/04/28 11:53:07;;;;;;;0.80;0.80;;;;;;;22.86;38.42;95313.09;6133458;28;103813;-56
2022/04/28 11:56:17;;;;;;;0.70;0.70;;;;;;;22.87;38.77;95304.00;6138920;28;105438;-56
2022/04/28 11:59:19;;;;;;;0.60;0.60;;;;;;;22.86;38.47;95302.41;6138986;28;103662;-56
2022/04/28 12:02:29;;;;;;;0.77;0.60;;;;;;;22.88;38.23;95295.69;6128364;28;103798;-55
2022/04/28 12:05:32;;;;;;;1.30;0.87;;;;;;;22.89;38.48;95291.13;6138901;28;103896;-55
2022/04/28 12:08:34;;;;;;;0.60;0.60;;;;;;;22.88;38.33;95293.00;6138858;28;103878;-56
2022/04/28 12:14:57;;;;;;;1.00;0.77;;;;;;;22.89;38.48;95293.78;6127964;28;103709;-56
2022/04/28 12:21:38;;;;;;;0.80;0.73;;;;;;;22.87;38.21;95296.78;6138490;28;103781;-54
2022/04/28 12:24:43;;;;;;;0.63;0.60;;;;;;;22.86;38.18;95292.53;6113543;28;104192;-54
2022/04/28 12:27:53;;;;;;;0.80;0.80;;;;;;;22.87;38.17;95288.75;6138027;28;104003;-56
2022/04/28 12:30:54;;;;;;;0.50;0.50;;;;;;;22.89;38.58;95291.13;6138693;28;104201;-54
2022/04/28 12:34:22;;;;;;;0.60;0.60;;;;;;;22.88;38.38;95285.00;6138693;28;104840;-55
2022/04/28 12:37:26;;;;;;;0.70;0.70;;;;;;;22.88;38.54;95290.34;6128623;28;105196;-55
2022/04/28 12:40:42;;;;;;;0.63;0.63;;;;;;;22.89;38.38;95285.78;6138893;28;105000;-56
2022/04/28 12:43:51;;;;;;;1.40;0.97;;;;;;;22.87;38.00;95288.75;6138463;28;103582;-56
2022/04/28 12:47:05;;;;;;;0.70;0.60;;;;;;;22.90;38.02;95279.34;6133869;28;104961;-54
2022/04/28 12:50:22;;;;;;;0.60;0.60;;;;;;;22.88;38.47;95278.88;6132843;28;104705;-56
2022/04/28 12:53:32;;;;;;;0.80;0.70;;;;;;;22.89;38.51;95277.78;6137872;28;103848;-56
2022/04/28 12:56:34;;;;;;;0.70;0.70;;;;;;;22.89;38.46;95275.13;6137873;28;103717;-54
2022/04/28 12:59:38;;;;;;;0.90;0.70;;;;;;;22.88;38.33;95273.53;6130033;28;103596;-56
2022/04/28 13:02:51;;;;;;;0.70;0.70;;;;;;;22.89;37.94;95272.44;6125135;28;104842;-56
2022/04/28 13:05:53;;;;;;;0.80;0.80;;;;;;;22.87;38.03;95275.41;6142158;28;103815;-55
2022/04/28 13:08:57;;;;;;;0.90;0.90;;;;;;;22.89;38.00;95277.78;6142410;28;105223;-54
2022/04/28 13:11:58;;;;;;;0.60;0.60;;;;;;;22.89;38.14;95275.91;6132080;28;104916;-56
2022/04/28 13:15:02;;;;;;;0.80;0.80;;;;;;;22.88;38.57;95281.53;6141494;28;103683;-56
2022/04/28 13:18:04;;;;;;;1.00;0.90;;;;;;;22.87;38.00;95277.31;6142207;28;104895;-56
2022/04/28 13:21:07;;;;;;;1.10;1.00;;;;;;;22.85;38.53;95280.28;6136586;28;103676;-55
2022/04/28 13:24:09;;;;;;;0.70;0.70;;;;;;;22.86;38.10;95273.06;6136554;28;106417;-56
2022/04/28 13:27:11;;;;;;;1.13;1.00;;;;;;;22.85;38.13;95266.94;6142112;28;104935;-54
2022/04/28 13:30:13;;;;;;;0.80;0.80;;;;;;;22.86;38.26;95278.41;6142180;28;104985;-55
2022/04/28 13:33:16;;;;;;;0.80;0.77;;;;;;;22.85;38.01;95272.28;6131251;28;103978;-55
2022/04/28 13:36:18;;;;;;;0.70;0.70;;;;;;;22.84;38.17;95273.34;6141892;28;104669;-55
2022/04/28 13:39:20;;;;;;;1.03;0.93;;;;;;;22.86;38.42;95270.41;6141691;28;103776;-55
2022/04/28 13:42:22;;;;;;;1.20;0.77;;;;;;;22.85;38.26;95277.63;6141964;28;104576;-55
2022/04/28 13:45:24;;;;;;;1.10;1.00;;;;;;;22.84;38.10;95278.69;6131422;28;105184;-56
2022/04/28 13:48:25;;;;;;;0.63;0.63;;;;;;;22.85;38.40;95280.28;6141236;28;103904;-54
2022/04/28 13:51:27;;;;;;;0.90;0.90;;;;;;;22.85;38.42;95269.59;6140807;28;105069;-55
2022/04/28 13:54:29;;;;;;;0.90;0.90;;;;;;;22.85;38.06;95274.94;6140876;28;103980;-55
2022/04/28 13:57:31;;;;;;;0.80;0.80;;;;;;;22.84;38.29;95270.66;6131823;28;103939;-54
2022/04/28 14:00:33;;;;;;;0.90;0.90;;;;;;;22.84;38.08;95278.69;6140832;28;103831;-55
2022/04/28 14:03:36;;;;;;;0.90;0.90;;;;;;;22.86;38.47;95273.06;6141342;28;104521;-55
2022/04/28 14:06:38;;;;;;;1.73;0.93;;;;;;;22.85;37.96;95274.13;6135878;28;104929;-54
2022/04/28 14:09:39;;;;;;;1.30;1.20;;;;;;;22.82;38.12;95277.41;6134626;28;103746;-55
2022/04/28 14:12:41;;;;;;;0.80;0.80;;;;;;;22.83;38.12;95281.66;6141037;28;103981;-54
2022/04/28 14:15:44;;;;;;;1.20;1.10;;;;;;;22.82;38.46;95285.41;6123871;28;104418;-55
2022/04/28 14:18:46;;;;;;;1.17;1.07;;;;;;;22.82;38.36;95282.75;6120742;28;103779;-55
2022/04/28 14:21:47;;;;;;;1.10;1.10;;;;;;;22.80;38.14;95283.06;6140288;28;103892;-55
2022/04/28 14:24:49;;;;;;;1.20;1.10;;;;;;;22.82;37.95;95274.75;6141130;28;104895;-56
2022/04/28 14:27:51;;;;;;;6.17;5.57;;;;;;;22.75;38.65;95279.72;6140835;28;104781;-57
2022/04/28 14:30:54;;;;;;;6.67;5.97;;;;;;;22.69;38.61;95284.41;6129400;28;103829;-57
2022/04/28 14:34:19;;;;;;;6.70;5.93;;;;;;;22.61;39.04;95285.91;6140608;28;103537;-57
2022/04/28 14:37:21;;;;;;;7.13;6.37;;;;;;;22.61;39.03;95290.44;6140771;28;104717;-56
2022/04/28 14:40:23;;;;;;;7.60;7.00;;;;;;;22.63;39.24;95290.94;6135529;28;104143;-56
2022/04/28 14:43:24;;;;;;;7.97;7.17;;;;;;;22.65;38.81;95294.09;6135100;28;105209;-57
2022/04/28 14:46:26;;;;;;;5.80;5.30;;;;;;;22.62;39.00;95292.03;6140291;28;103931;-56
2022/04/28 14:52:49;;;;;;;6.10;5.50;;;;;;;22.65;39.02;95299.41;6129046;28;103951;-56
2022/04/28 14:55:51;;;;;;;9.77;5.17;;;;;;;22.66;39.19;95293.00;6138963;28;103718;-55
2022/04/28 14:58:57;;;;;;;4.50;4.10;;;;;;;22.66;39.28;95293.00;6140086;28;103815;-55
2022/04/28 15:01:59;;;;;;;4.70;4.30;;;;;;;22.66;38.86;95299.13;6140964;28;104027;-58